Aviation Digital Data Service (ADDS)

Output produced by METARs form (0149 UTC 24 October 2019)
found at http://www.aviationweather.gov/metar/data/
 
Forecast for: RKTN (TAEGU (US/KOR-AF, KR)
Text: TAF RKTN 232300Z 2400/2506 06006KT 9999 BKN040 BKN100 TX20/2406Z TN15/2421Z
Forecast period: 0000 UTC 24 October 2019 to 0600 UTC 25 October 2019
Forecast type: FROM: standard forecast or significant change
Winds: from the ENE (60 degrees) at 7 MPH (6 knots; 3.1 m/s)
Visibility: 6 or more miles 10+ km)
Ceiling: 4000 feet AGL
Clouds: broken clouds at 4000 feet AGL
broken clouds at 10000 feet AGL
Weather: no significant weather forecast for this period
Text: TEMPO 2403/2414 06008KT 4800 -RA BR BKN025 OVC080
Forecast period: 0300 to 1400 UTC 24 October 2019
Forecast type: TEMPORARY: The following changes expected for less than half the time period
Winds: from the ENE (60 degrees) at 9 MPH (8 knots; 4.1 m/s)
Visibility: 2.98 miles (4.80 km)
Ceiling: 2500 feet AGL
Clouds: broken clouds at 2500 feet AGL
overcast cloud deck at 8000 feet AGL
Weather: -RA BR  (light rain, mist)